createdAt,value
2023-01-13T00:00:28.535Z,12.15
2023-01-13T00:01:26.929Z,12.13
2023-01-13T00:02:28.317Z,12.12
2023-01-13T00:03:28.932Z,12.09
2023-01-13T00:04:28.356Z,12.07
2023-01-13T00:05:28.815Z,12.05
2023-01-13T00:06:27.992Z,12.03
2023-01-13T00:07:26.861Z,12.02
2023-01-13T00:08:28.383Z,12.01
2023-01-13T00:09:28.824Z,11.98
2023-01-13T00:10:26.922Z,11.96
2023-01-13T00:11:28.214Z,11.95
2023-01-13T00:12:28.225Z,11.93
2023-01-13T00:13:28.194Z,11.91
2023-01-13T00:14:28.756Z,11.90
2023-01-13T00:15:26.797Z,11.89
2023-01-13T00:16:26.887Z,11.88
2023-01-13T00:17:27.625Z,11.87
2023-01-13T00:18:27.665Z,11.85
2023-01-13T00:19:28.666Z,11.84
2023-01-13T00:20:27.597Z,11.83
2023-01-13T00:21:28.122Z,11.83
2023-01-13T00:22:28.119Z,11.81
2023-01-13T00:23:27.596Z,11.81
2023-01-13T00:24:27.558Z,11.80
2023-01-13T00:25:28.054Z,11.80
2023-01-13T00:26:27.540Z,11.80
2023-01-13T00:27:27.555Z,11.79
2023-01-13T00:28:28.008Z,11.78
2023-01-13T00:29:26.606Z,11.78
2023-01-13T00:30:27.489Z,11.77
2023-01-13T00:31:28.057Z,11.76
2023-01-13T00:32:27.519Z,11.74
2023-01-13T00:33:29.518Z,11.72
2023-01-13T00:34:26.643Z,11.72
2023-01-13T00:35:27.530Z,11.70
2023-01-13T00:36:27.488Z,11.71
2023-01-13T00:37:27.924Z,11.71
2023-01-13T00:38:27.439Z,11.72
2023-01-13T00:39:27.431Z,11.75
2023-01-13T00:40:27.452Z,11.74
2023-01-13T00:41:27.898Z,11.75
2023-01-13T00:42:27.871Z,11.74
2023-01-13T00:43:27.363Z,11.75
2023-01-13T00:44:27.404Z,11.73
2023-01-13T00:45:26.520Z,11.72
2023-01-13T00:46:26.453Z,11.71
2023-01-13T00:47:26.392Z,11.70
2023-01-13T00:48:27.335Z,11.68
2023-01-13T00:49:26.408Z,11.66
2023-01-13T00:50:26.661Z,11.66
2023-01-13T00:51:27.805Z,11.64
2023-01-13T00:52:27.321Z,11.63
2023-01-13T00:53:27.272Z,11.61
2023-01-13T00:54:27.246Z,11.61
2023-01-13T00:55:28.040Z,11.58
2023-01-13T00:56:39.842Z,11.57
2023-01-13T00:57:30.043Z,11.56
2023-01-13T00:58:27.304Z,11.54
2023-01-13T00:59:27.233Z,11.53
2023-01-13T01:00:27.673Z,11.52
2023-01-13T01:01:27.764Z,11.50
2023-01-13T01:02:27.221Z,11.50
2023-01-13T01:03:27.194Z,11.50
2023-01-13T01:04:26.246Z,11.48
2023-01-13T01:05:27.146Z,11.48
2023-01-13T01:06:26.693Z,11.48
2023-01-13T01:07:27.597Z,11.47
2023-01-13T01:08:27.097Z,11.47
2023-01-13T01:09:28.030Z,11.46
2023-01-13T01:10:27.090Z,11.47
2023-01-13T01:11:27.306Z,11.48
2023-01-13T01:12:29.427Z,11.47
2023-01-13T01:13:27.372Z,11.48
2023-01-13T01:14:27.067Z,11.51
2023-01-13T01:15:27.739Z,11.50
2023-01-13T01:16:28.101Z,11.51
2023-01-13T01:17:27.055Z,11.50
2023-01-13T01:18:27.031Z,11.50
2023-01-13T01:19:26.261Z,11.51
2023-01-13T01:20:27.999Z,11.51
2023-01-13T01:21:26.128Z,11.50
2023-01-13T01:22:26.186Z,11.50
2023-01-13T01:23:28.012Z,11.49
2023-01-13T01:24:27.551Z,11.48
2023-01-13T01:25:26.291Z,11.46
2023-01-13T01:26:26.959Z,11.45
2023-01-13T01:27:27.463Z,11.42
2023-01-13T01:28:26.535Z,11.40
2023-01-13T01:29:26.951Z,11.39
2023-01-13T01:30:26.954Z,11.37
2023-01-13T01:31:27.416Z,11.35
2023-01-13T01:32:30.377Z,11.32
2023-01-13T01:33:26.523Z,11.31
2023-01-13T01:34:27.534Z,11.30
2023-01-13T01:35:27.063Z,11.28
2023-01-13T01:36:26.171Z,11.27
2023-01-13T01:37:26.814Z,11.24
2023-01-13T01:38:27.289Z,11.22
2023-01-13T01:39:26.849Z,11.21
2023-01-13T01:40:27.186Z,11.19
2023-01-13T01:41:27.042Z,11.17
2023-01-13T01:42:26.771Z,11.16
2023-01-13T01:43:26.454Z,11.15
2023-01-13T01:44:27.715Z,11.14
2023-01-13T01:45:27.240Z,11.13
2023-01-13T01:46:26.777Z,11.11
2023-01-13T01:47:30.197Z,11.10
2023-01-13T01:48:26.746Z,11.09
2023-01-13T01:49:27.302Z,11.08
2023-01-13T01:50:27.159Z,11.07
2023-01-13T01:51:26.065Z,11.06
2023-01-13T01:52:26.713Z,11.04
2023-01-13T01:53:27.762Z,11.03
2023-01-13T01:54:27.206Z,11.01
2023-01-13T01:55:27.103Z,10.99
2023-01-13T01:56:26.023Z,10.97
2023-01-13T01:57:26.668Z,10.94
2023-01-13T01:58:26.657Z,10.93
2023-01-13T01:59:27.534Z,10.92
2023-01-13T02:00:26.657Z,10.89
2023-01-13T02:01:26.895Z,10.87
2023-01-13T02:02:27.075Z,10.85
2023-01-13T02:03:27.372Z,10.83
2023-01-13T02:04:29.541Z,10.81
2023-01-13T02:05:26.589Z,10.79
2023-01-13T02:06:26.285Z,10.78
2023-01-13T02:07:25.861Z,10.75
2023-01-13T02:08:26.501Z,10.73
2023-01-13T02:09:26.661Z,10.71
2023-01-13T02:10:26.481Z,10.70
2023-01-13T02:11:26.991Z,10.68
2023-01-13T02:12:27.693Z,10.67
2023-01-13T02:13:27.120Z,10.67
2023-01-13T02:14:26.931Z,10.68
2023-01-13T02:15:27.494Z,10.70
2023-01-13T02:16:26.473Z,10.71
2023-01-13T02:17:26.193Z,10.71
2023-01-13T02:18:27.366Z,10.70
2023-01-13T02:19:26.393Z,10.70
2023-01-13T02:20:26.363Z,10.69
2023-01-13T02:21:26.364Z,10.67
2023-01-13T02:22:26.613Z,10.65
2023-01-13T02:23:26.806Z,10.64
2023-01-13T02:24:26.333Z,10.62
2023-01-13T02:25:26.327Z,10.62
2023-01-13T02:26:26.784Z,10.60
2023-01-13T02:27:26.304Z,10.59
2023-01-13T02:28:27.233Z,10.57
2023-01-13T02:29:26.728Z,10.56
2023-01-13T02:30:26.752Z,10.54
2023-01-13T02:31:27.338Z,10.53
2023-01-13T02:32:26.219Z,10.51
2023-01-13T02:33:27.214Z,10.50
2023-01-13T02:34:26.213Z,10.48
2023-01-13T02:35:26.152Z,10.47
2023-01-13T02:36:26.176Z,10.45
2023-01-13T02:37:26.656Z,10.44
2023-01-13T02:38:26.169Z,10.44
2023-01-13T02:39:26.318Z,10.45
2023-01-13T02:40:26.219Z,10.47
2023-01-13T02:41:26.228Z,10.49
2023-01-13T02:42:26.771Z,10.52
2023-01-13T02:43:26.147Z,10.55
2023-01-13T02:44:28.455Z,10.58
2023-01-13T02:45:25.609Z,10.61
2023-01-13T02:46:34.105Z,10.63
2023-01-13T02:52:32.043Z,10.57
2023-01-13T02:53:33.362Z,10.64
2023-01-13T02:54:33.042Z,10.66
2023-01-13T02:55:33.313Z,10.66
2023-01-13T02:56:33.019Z,10.68
2023-01-13T02:57:32.183Z,10.68
2023-01-13T02:58:32.004Z,10.68
2023-01-13T02:59:34.261Z,10.68
2023-01-13T03:00:33.237Z,10.70
2023-01-13T03:01:31.919Z,10.71
2023-01-13T03:02:32.375Z,10.74
2023-01-13T03:03:32.706Z,10.76
2023-01-13T03:04:31.861Z,10.78
2023-01-13T03:05:31.766Z,10.81
2023-01-13T03:06:33.252Z,10.82
2023-01-13T03:07:33.159Z,10.84
2023-01-13T03:08:33.151Z,10.84
2023-01-13T03:09:31.693Z,10.84
2023-01-13T03:10:32.668Z,10.84
2023-01-13T03:11:33.590Z,10.82
2023-01-13T03:12:33.080Z,10.80
2023-01-13T03:13:32.914Z,10.78
2023-01-13T03:14:31.638Z,10.76
2023-01-13T03:15:31.627Z,10.74
2023-01-13T03:16:34.453Z,10.71
2023-01-13T03:17:33.092Z,10.68
2023-01-13T03:18:32.560Z,10.66
2023-01-13T03:19:32.527Z,10.63
2023-01-13T03:20:32.532Z,10.61
2023-01-13T03:21:31.553Z,10.58
2023-01-13T03:22:31.754Z,10.58
2023-01-13T03:23:32.556Z,10.56
2023-01-13T03:24:32.962Z,10.56
2023-01-13T03:25:32.970Z,10.54
2023-01-13T03:26:33.154Z,10.55
2023-01-13T03:27:32.445Z,10.54
2023-01-13T03:28:33.054Z,10.55
2023-01-13T03:29:32.432Z,10.55
2023-01-13T03:30:32.455Z,10.52
2023-01-13T03:31:32.926Z,10.50
2023-01-13T03:32:32.871Z,10.49
2023-01-13T03:33:32.376Z,10.46
2023-01-13T03:34:32.891Z,10.44
2023-01-13T03:35:33.349Z,10.41
2023-01-13T03:36:32.840Z,10.40
2023-01-13T03:37:32.835Z,10.38
2023-01-13T03:38:32.814Z,10.37
2023-01-13T03:39:32.325Z,10.35
2023-01-13T03:40:32.346Z,10.33
2023-01-13T03:41:32.324Z,10.31
2023-01-13T03:42:32.803Z,10.30
2023-01-13T03:43:32.777Z,10.30
2023-01-13T03:44:32.958Z,10.30
2023-01-13T03:45:32.803Z,10.31
2023-01-13T03:46:32.795Z,10.31
2023-01-13T03:47:32.775Z,10.32
2023-01-13T03:48:32.240Z,10.33
2023-01-13T03:49:32.712Z,10.35
2023-01-13T03:50:32.699Z,10.37
2023-01-13T03:51:32.195Z,10.38
2023-01-13T03:52:32.495Z,10.38
2023-01-13T03:53:32.160Z,10.38
2023-01-13T03:54:32.162Z,10.37
2023-01-13T03:55:32.647Z,10.36
2023-01-13T03:56:32.137Z,10.36
2023-01-13T03:57:32.153Z,10.33
2023-01-13T03:58:32.230Z,10.33
2023-01-13T03:59:32.118Z,10.31
2023-01-13T04:00:32.140Z,10.31
2023-01-13T04:01:32.777Z,10.31
2023-01-13T04:02:31.708Z,10.32
2023-01-13T04:03:32.123Z,10.31
2023-01-13T04:04:32.604Z,10.32
2023-01-13T04:05:32.542Z,10.33
2023-01-13T04:06:32.522Z,10.34
2023-01-13T04:07:33.049Z,10.36
2023-01-13T04:08:32.155Z,10.37
2023-01-13T04:09:32.069Z,10.39
2023-01-13T04:10:32.513Z,10.39
2023-01-13T04:11:32.466Z,10.40
2023-01-13T04:12:31.981Z,10.42
2023-01-13T04:13:31.933Z,10.42
2023-01-13T04:14:31.975Z,10.42
2023-01-13T04:15:32.167Z,10.41
2023-01-13T04:16:31.963Z,10.40
2023-01-13T04:17:31.895Z,10.41
2023-01-13T04:18:31.897Z,10.39
2023-01-13T04:19:32.409Z,10.40
2023-01-13T04:20:31.135Z,10.40
2023-01-13T04:21:31.920Z,10.39
2023-01-13T04:22:31.985Z,10.40
2023-01-13T04:23:32.336Z,10.40
2023-01-13T04:24:31.875Z,10.40
2023-01-13T04:25:32.329Z,10.42
2023-01-13T04:26:31.993Z,10.41
2023-01-13T04:27:32.130Z,10.42
2023-01-13T04:28:31.174Z,10.43
2023-01-13T04:29:32.296Z,10.43
2023-01-13T04:30:31.999Z,10.44
2023-01-13T04:31:32.458Z,10.45
2023-01-13T04:32:32.209Z,10.44
2023-01-13T04:33:32.249Z,10.45
2023-01-13T04:34:32.262Z,10.46
2023-01-13T04:35:32.202Z,10.48
2023-01-13T04:36:31.725Z,10.48
2023-01-13T04:37:32.179Z,10.49
2023-01-13T04:38:31.685Z,10.50
2023-01-13T04:39:31.194Z,10.50
2023-01-13T04:40:31.754Z,10.50
2023-01-13T04:41:32.209Z,10.51
2023-01-13T04:42:32.151Z,10.52
2023-01-13T04:43:32.108Z,10.53
2023-01-13T04:44:32.668Z,10.54
2023-01-13T04:45:31.607Z,10.54
2023-01-13T04:46:31.141Z,10.55
2023-01-13T04:47:30.749Z,10.56
2023-01-13T04:48:32.824Z,10.56
2023-01-13T04:49:31.995Z,10.57
2023-01-13T04:50:32.179Z,10.57
2023-01-13T04:51:31.988Z,10.58
2023-01-13T04:52:32.465Z,10.58
2023-01-13T04:53:33.458Z,10.58
2023-01-13T04:54:41.469Z,10.58
2023-01-13T04:55:31.988Z,10.59
2023-01-13T04:56:31.983Z,10.58
2023-01-13T04:57:31.952Z,10.57
2023-01-13T04:58:31.490Z,10.56
2023-01-13T04:59:34.430Z,10.56
2023-01-13T05:00:31.438Z,10.56
2023-01-13T05:01:31.545Z,10.56
2023-01-13T05:02:31.413Z,10.57
2023-01-13T05:03:31.962Z,10.58
2023-01-13T05:04:32.020Z,10.58
2023-01-13T05:05:31.911Z,10.58
2023-01-13T05:06:31.383Z,10.59
2023-01-13T05:07:31.372Z,10.60
2023-01-13T05:08:31.834Z,10.60
2023-01-13T05:09:31.843Z,10.60
2023-01-13T05:10:31.925Z,10.60
2023-01-13T05:11:31.307Z,10.60
2023-01-13T05:12:31.317Z,10.60
2023-01-13T05:13:30.604Z,10.59
2023-01-13T05:14:31.778Z,10.58
2023-01-13T05:15:31.269Z,10.56
2023-01-13T05:16:31.892Z,10.54
2023-01-13T05:17:31.289Z,10.54
2023-01-13T05:18:31.267Z,10.54
2023-01-13T05:19:31.230Z,10.53
2023-01-13T05:20:30.362Z,10.52
2023-01-13T05:21:31.803Z,10.51
2023-01-13T05:22:31.735Z,10.51
2023-01-13T05:23:31.679Z,10.51
2023-01-13T05:24:31.208Z,10.51
2023-01-13T05:25:30.286Z,10.52
2023-01-13T05:26:31.382Z,10.51
2023-01-13T05:27:31.210Z,10.51
2023-01-13T05:28:31.776Z,10.51
2023-01-13T05:29:31.112Z,10.52
2023-01-13T05:30:31.119Z,10.52
2023-01-13T05:31:31.216Z,10.51
2023-01-13T05:32:31.091Z,10.53
2023-01-13T05:33:31.554Z,10.51
2023-01-13T05:34:31.569Z,10.52
2023-01-13T05:35:31.556Z,10.53
2023-01-13T05:36:31.549Z,10.54
2023-01-13T05:37:31.523Z,10.55
2023-01-13T05:38:31.038Z,10.56
2023-01-13T05:39:32.038Z,10.56
2023-01-13T05:40:31.091Z,10.57
2023-01-13T05:41:32.001Z,10.57
2023-01-13T05:42:32.000Z,10.58
2023-01-13T05:43:31.496Z,10.56
2023-01-13T05:44:31.961Z,10.56
2023-01-13T05:45:31.971Z,10.57
2023-01-13T05:46:30.971Z,10.56
2023-01-13T05:47:30.927Z,10.56
2023-01-13T05:48:32.677Z,10.57
2023-01-13T05:49:31.416Z,10.57
2023-01-13T05:50:31.915Z,10.58
2023-01-13T05:51:31.363Z,10.58
2023-01-13T05:52:30.913Z,10.58
2023-01-13T05:53:32.640Z,10.57
2023-01-13T05:54:31.119Z,10.57
2023-01-13T05:55:30.263Z,10.58
2023-01-13T05:56:32.121Z,10.57
2023-01-13T05:57:31.306Z,10.55
2023-01-13T05:58:30.836Z,10.54
2023-01-13T05:59:31.841Z,10.53
2023-01-13T06:00:30.756Z,10.52
2023-01-13T06:01:31.250Z,10.50
2023-01-13T06:02:31.841Z,10.47
2023-01-13T06:03:30.780Z,10.46
2023-01-13T06:04:30.764Z,10.44
2023-01-13T06:05:31.237Z,10.41
2023-01-13T06:06:30.840Z,10.39
2023-01-13T06:07:32.174Z,10.38
2023-01-13T06:08:30.816Z,10.35
2023-01-13T06:09:31.543Z,10.32
2023-01-13T06:10:30.732Z,10.30
2023-01-13T06:11:32.088Z,10.27
2023-01-13T06:12:30.667Z,10.26
2023-01-13T06:13:30.737Z,10.23
2023-01-13T06:14:30.286Z,10.21
2023-01-13T06:15:30.650Z,10.22
2023-01-13T06:16:33.641Z,10.22
2023-01-13T06:17:30.349Z,10.22
2023-01-13T06:18:31.708Z,10.26
2023-01-13T06:19:29.799Z,10.26
2023-01-13T06:20:31.576Z,10.29
2023-01-13T06:21:32.970Z,10.31
2023-01-13T06:22:31.051Z,10.34
2023-01-13T06:23:31.538Z,10.36
2023-01-13T06:24:32.096Z,10.38
2023-01-13T06:25:30.559Z,10.40
2023-01-13T06:26:31.000Z,10.39
2023-01-13T06:27:30.977Z,10.39
2023-01-13T06:28:30.507Z,10.39
2023-01-13T06:29:31.455Z,10.37
2023-01-13T06:30:30.966Z,10.35
2023-01-13T06:31:30.496Z,10.32
2023-01-13T06:32:30.599Z,10.30
2023-01-13T06:33:30.062Z,10.27
2023-01-13T06:34:30.656Z,10.23
2023-01-13T06:35:31.422Z,10.20
2023-01-13T06:36:31.097Z,10.16
2023-01-13T06:37:31.402Z,10.14
2023-01-13T06:38:30.867Z,10.10
2023-01-13T06:39:30.336Z,10.08
2023-01-13T06:40:31.410Z,10.06
2023-01-13T06:41:31.655Z,10.04
2023-01-13T06:42:30.835Z,10.02
2023-01-13T06:43:30.808Z,9.99
2023-01-13T06:44:30.284Z,9.98
2023-01-13T06:45:30.083Z,9.98
2023-01-13T06:46:31.553Z,9.98
2023-01-13T06:47:31.403Z,9.98
2023-01-13T06:48:30.427Z,9.99
2023-01-13T06:49:30.291Z,9.98
2023-01-13T06:50:31.519Z,9.98
2023-01-13T06:51:31.228Z,9.98
2023-01-13T06:52:31.366Z,9.98
2023-01-13T06:53:31.221Z,9.98
2023-01-13T06:54:31.737Z,9.96
2023-01-13T06:55:30.710Z,9.95
2023-01-13T06:56:31.300Z,9.94
2023-01-13T06:57:31.783Z,9.94
2023-01-13T06:58:30.299Z,9.94
2023-01-13T06:59:31.661Z,9.96
2023-01-13T07:00:31.167Z,9.94
2023-01-13T07:01:31.368Z,9.94
2023-01-13T07:02:31.065Z,9.92
2023-01-13T07:03:30.617Z,9.91
2023-01-13T07:04:30.287Z,9.91
2023-01-13T07:05:30.140Z,9.90
2023-01-13T07:06:30.557Z,9.89
2023-01-13T07:07:31.177Z,9.89
2023-01-13T07:08:31.467Z,9.88
2023-01-13T07:09:31.289Z,9.88
2023-01-13T07:10:32.001Z,9.86
2023-01-13T07:11:31.014Z,9.85
2023-01-13T07:12:30.023Z,9.84
2023-01-13T07:13:31.542Z,9.83
2023-01-13T07:14:30.047Z,9.83
2023-01-13T07:15:31.010Z,9.83
2023-01-13T07:16:31.935Z,9.84
2023-01-13T07:17:30.580Z,9.86
2023-01-13T07:18:29.999Z,9.87
2023-01-13T07:19:30.990Z,9.89
2023-01-13T07:20:30.144Z,9.89
2023-01-13T07:21:30.999Z,9.91
2023-01-13T07:22:29.162Z,9.92
2023-01-13T07:23:30.388Z,9.92
2023-01-13T07:24:30.394Z,9.91
2023-01-13T07:25:30.361Z,9.94
2023-01-13T07:26:29.880Z,9.95
2023-01-13T07:27:30.871Z,9.97
2023-01-13T07:28:30.839Z,10.00
2023-01-13T07:29:30.841Z,10.01
2023-01-13T07:30:30.021Z,10.04
2023-01-13T07:31:30.830Z,10.06
2023-01-13T07:32:30.818Z,10.09
2023-01-13T07:33:30.364Z,10.11
2023-01-13T07:34:29.775Z,10.13
2023-01-13T07:35:29.784Z,10.15
2023-01-13T07:36:29.524Z,10.18
2023-01-13T07:37:29.002Z,10.19
2023-01-13T07:38:30.253Z,10.21
2023-01-13T07:39:29.761Z,10.24
2023-01-13T07:40:29.699Z,10.26
2023-01-13T07:41:30.210Z,10.27
2023-01-13T07:42:30.704Z,10.29
2023-01-13T07:43:30.183Z,10.30
2023-01-13T07:44:30.197Z,10.31
2023-01-13T07:45:30.305Z,10.32
2023-01-13T07:46:30.130Z,10.36
2023-01-13T07:47:30.111Z,10.37
2023-01-13T07:48:30.105Z,10.38
2023-01-13T07:49:29.618Z,10.39
2023-01-13T07:50:30.146Z,10.41
2023-01-13T07:51:30.685Z,10.42
2023-01-13T07:52:29.604Z,10.44
2023-01-13T07:53:30.055Z,10.46
2023-01-13T07:54:40.210Z,10.47
2023-01-13T07:55:31.024Z,10.48
2023-01-13T07:56:30.556Z,10.50
2023-01-13T07:57:30.042Z,10.51
2023-01-13T07:58:30.529Z,10.52
2023-01-13T07:59:30.023Z,10.53
2023-01-13T08:00:30.526Z,10.56
2023-01-13T08:01:29.559Z,10.56
2023-01-13T08:02:30.572Z,10.57
2023-01-13T08:03:30.578Z,10.59
2023-01-13T08:04:30.775Z,10.60
2023-01-13T08:05:29.829Z,10.61
2023-01-13T08:06:30.446Z,10.62
2023-01-13T08:07:29.933Z,10.62
2023-01-13T08:08:29.893Z,10.63
2023-01-13T08:09:29.899Z,10.64
2023-01-13T08:10:29.902Z,10.66
2023-01-13T08:11:29.450Z,10.67
2023-01-13T08:12:30.433Z,10.68
2023-01-13T08:13:30.600Z,10.67
2023-01-13T08:14:30.373Z,10.69
2023-01-13T08:15:30.615Z,10.69
2023-01-13T08:16:29.882Z,10.70
2023-01-13T08:17:29.794Z,10.71
2023-01-13T08:18:29.353Z,10.72
2023-01-13T08:19:29.513Z,10.73
2023-01-13T08:20:29.777Z,10.75
2023-01-13T08:21:29.326Z,10.75
2023-01-13T08:22:29.285Z,10.76
2023-01-13T08:23:29.746Z,10.77
2023-01-13T08:24:29.464Z,10.78
2023-01-13T08:25:28.798Z,10.79
2023-01-13T08:26:29.254Z,10.80
2023-01-13T08:27:29.271Z,10.80
2023-01-13T08:28:29.186Z,10.81
2023-01-13T08:29:29.196Z,10.83
2023-01-13T08:30:30.299Z,10.83
2023-01-13T08:31:28.414Z,10.85
2023-01-13T08:32:30.179Z,10.85
2023-01-13T08:33:30.505Z,10.88
2023-01-13T08:34:29.882Z,10.90
2023-01-13T08:35:29.530Z,10.93
2023-01-13T08:36:29.326Z,10.96
2023-01-13T08:37:29.106Z,10.97
2023-01-13T08:38:30.195Z,10.99
2023-01-13T08:39:30.278Z,11.01
2023-01-13T08:40:28.402Z,11.02
2023-01-13T08:41:29.117Z,11.04
2023-01-13T08:42:29.071Z,11.03
2023-01-13T08:43:29.772Z,11.03
2023-01-13T08:44:29.307Z,11.03
2023-01-13T08:45:30.554Z,11.04
2023-01-13T08:46:29.522Z,11.06
2023-01-13T08:47:29.068Z,11.05
2023-01-13T08:48:31.582Z,11.07
2023-01-13T08:49:28.973Z,11.07
2023-01-13T08:50:28.981Z,11.08
2023-01-13T08:51:30.195Z,11.09
2023-01-13T08:52:29.729Z,11.10
2023-01-13T08:53:28.901Z,11.11
2023-01-13T08:54:29.339Z,11.14
2023-01-13T08:55:29.839Z,11.15
2023-01-13T08:56:28.959Z,11.17
2023-01-13T08:57:29.979Z,11.19
2023-01-13T08:58:29.365Z,11.22
2023-01-13T08:59:29.357Z,11.25
2023-01-13T09:00:29.331Z,11.28
2023-01-13T09:01:29.376Z,11.29
2023-01-13T09:02:29.417Z,11.31
2023-01-13T09:03:28.928Z,11.34
2023-01-13T09:04:29.922Z,11.35
2023-01-13T09:05:29.803Z,11.36
2023-01-13T09:06:29.274Z,11.36
2023-01-13T09:07:29.258Z,11.38
2023-01-13T09:08:29.265Z,11.40
2023-01-13T09:09:29.301Z,11.40
2023-01-13T09:10:28.739Z,11.43
2023-01-13T09:11:29.222Z,11.42
2023-01-13T09:12:28.730Z,11.44
2023-01-13T09:13:29.187Z,11.45
2023-01-13T09:14:29.187Z,11.46
2023-01-13T09:15:28.752Z,11.46
2023-01-13T09:16:29.155Z,11.47
2023-01-13T09:17:28.748Z,11.49
2023-01-13T09:18:32.975Z,11.50
2023-01-13T09:19:28.748Z,11.51
2023-01-13T09:20:29.261Z,11.50
2023-01-13T09:21:28.901Z,11.50
2023-01-13T09:22:27.762Z,11.51
2023-01-13T09:23:28.587Z,11.53
2023-01-13T09:24:28.581Z,11.55
2023-01-13T09:25:29.312Z,11.56
2023-01-13T09:26:29.081Z,11.58
2023-01-13T09:27:29.211Z,11.60
2023-01-13T09:28:28.528Z,11.63
2023-01-13T09:29:27.995Z,11.68
2023-01-13T09:30:28.557Z,11.73
2023-01-13T09:31:28.604Z,11.81
2023-01-13T09:32:28.488Z,11.85
2023-01-13T09:33:29.028Z,11.89
2023-01-13T09:34:28.468Z,11.92
2023-01-13T09:35:28.458Z,11.99
2023-01-13T09:36:28.582Z,11.98
2023-01-13T09:37:28.480Z,11.99
2023-01-13T09:38:28.429Z,11.99
2023-01-13T09:39:28.997Z,11.99
2023-01-13T09:40:29.009Z,11.99
2023-01-13T09:41:28.400Z,11.97
2023-01-13T09:42:28.896Z,11.96
2023-01-13T09:43:28.373Z,11.96
2023-01-13T09:44:29.330Z,11.98
2023-01-13T09:45:28.595Z,12.00
2023-01-13T09:46:27.458Z,12.02
2023-01-13T09:47:28.844Z,12.07
2023-01-13T09:48:28.325Z,12.07
2023-01-13T09:49:29.093Z,12.06
2023-01-13T09:50:27.370Z,12.07
2023-01-13T09:51:28.922Z,12.13
2023-01-13T09:52:27.523Z,12.23
2023-01-13T09:53:27.352Z,12.34
2023-01-13T09:54:28.767Z,12.43
2023-01-13T09:55:29.246Z,12.61
2023-01-13T09:56:28.256Z,12.90
2023-01-13T09:57:28.424Z,13.28
2023-01-13T09:58:27.553Z,13.51
2023-01-13T09:59:28.699Z,13.64
2023-01-13T10:00:28.696Z,13.69
2023-01-13T10:01:27.536Z,13.67
2023-01-13T10:02:27.260Z,13.59
2023-01-13T10:03:29.607Z,13.47
2023-01-13T10:04:27.242Z,13.33
2023-01-13T10:05:28.116Z,13.19
2023-01-13T10:06:28.618Z,13.06
2023-01-13T10:07:30.917Z,12.96
2023-01-13T10:08:27.230Z,12.88
2023-01-13T10:09:28.216Z,12.79
2023-01-13T10:10:28.223Z,12.73
2023-01-13T10:11:28.059Z,12.67
2023-01-13T10:12:27.158Z,12.62
2023-01-13T10:13:29.036Z,12.57
2023-01-13T10:14:28.572Z,12.51
2023-01-13T10:15:27.278Z,12.49
2023-01-13T10:16:28.543Z,12.46
2023-01-13T10:17:28.513Z,12.41
2023-01-13T10:18:28.508Z,12.38
2023-01-13T10:19:28.493Z,12.36
2023-01-13T10:20:27.985Z,12.35
2023-01-13T10:21:27.989Z,12.34
2023-01-13T10:22:27.959Z,12.34
2023-01-13T10:23:28.450Z,12.38
2023-01-13T10:24:28.471Z,12.41
2023-01-13T10:25:28.432Z,12.43
2023-01-13T10:26:28.027Z,12.45
2023-01-13T10:27:28.577Z,12.49
2023-01-13T10:28:28.414Z,12.48
2023-01-13T10:29:27.661Z,12.47
2023-01-13T10:30:27.891Z,12.44
2023-01-13T10:31:27.076Z,12.45
2023-01-13T10:32:28.380Z,12.44
2023-01-13T10:33:27.952Z,12.43
2023-01-13T10:34:27.857Z,12.42
2023-01-13T10:35:27.818Z,12.40
2023-01-13T10:36:27.973Z,12.41
2023-01-13T10:37:26.869Z,12.38
2023-01-13T10:38:27.069Z,12.33
2023-01-13T10:39:28.355Z,12.30
2023-01-13T10:40:27.278Z,12.26
2023-01-13T10:41:28.248Z,12.25
2023-01-13T10:42:28.248Z,12.23
2023-01-13T10:43:28.714Z,12.19
2023-01-13T10:44:27.821Z,12.12
2023-01-13T10:45:27.896Z,12.08
2023-01-13T10:46:27.100Z,12.07
2023-01-13T10:47:28.207Z,12.12
2023-01-13T10:48:27.674Z,12.16
2023-01-13T10:49:28.174Z,12.14
2023-01-13T10:50:26.791Z,12.10
2023-01-13T10:51:28.185Z,12.08
2023-01-13T10:52:26.773Z,12.07
2023-01-13T10:53:28.116Z,12.06
2023-01-13T10:54:28.134Z,12.07
2023-01-13T10:55:27.644Z,12.07
2023-01-13T10:56:27.619Z,12.10
2023-01-13T10:57:28.175Z,12.10
2023-01-13T10:58:27.177Z,12.07
2023-01-13T10:59:28.071Z,12.07
2023-01-13T11:00:26.956Z,12.09
2023-01-13T11:01:29.145Z,12.08
2023-01-13T11:02:27.194Z,12.07
2023-01-13T11:03:28.060Z,12.09
2023-01-13T11:04:28.095Z,12.13
2023-01-13T11:05:26.658Z,12.14
2023-01-13T11:06:27.546Z,12.12
2023-01-13T11:07:28.461Z,12.10
2023-01-13T11:08:26.593Z,12.10
2023-01-13T11:09:27.613Z,12.12
2023-01-13T11:10:27.627Z,12.17
2023-01-13T11:11:26.532Z,12.24
2023-01-13T11:12:27.930Z,12.30
2023-01-13T11:13:27.921Z,12.35
2023-01-13T11:14:26.487Z,12.37
2023-01-13T11:15:27.415Z,12.38
2023-01-13T11:16:26.574Z,12.38
2023-01-13T11:17:27.965Z,12.38
2023-01-13T11:18:27.411Z,12.34
2023-01-13T11:19:27.366Z,12.30
2023-01-13T11:20:27.345Z,12.27
2023-01-13T11:21:27.907Z,12.25
2023-01-13T11:22:27.829Z,12.22
2023-01-13T11:23:27.831Z,12.20
2023-01-13T11:24:27.845Z,12.22
2023-01-13T11:25:27.676Z,12.20
2023-01-13T11:26:27.363Z,12.20
2023-01-13T11:27:27.334Z,12.18
2023-01-13T11:28:27.764Z,12.12
2023-01-13T11:29:27.265Z,12.04
2023-01-13T11:30:27.770Z,11.97
2023-01-13T11:31:27.756Z,11.89
2023-01-13T11:32:27.729Z,11.85
2023-01-13T11:33:27.226Z,11.80
2023-01-13T11:34:27.211Z,11.74
2023-01-13T11:35:27.224Z,11.68
2023-01-13T11:36:26.915Z,11.62
2023-01-13T11:37:27.706Z,11.60
2023-01-13T11:38:27.862Z,11.60
2023-01-13T11:39:27.695Z,11.60
2023-01-13T11:40:27.657Z,11.60
2023-01-13T11:41:28.081Z,11.61
2023-01-13T11:42:28.104Z,11.64
2023-01-13T11:43:27.107Z,11.67
2023-01-13T11:44:27.079Z,11.72
2023-01-13T11:45:27.118Z,11.74
2023-01-13T11:46:27.666Z,11.76
2023-01-13T11:47:27.105Z,11.76
2023-01-13T11:48:27.540Z,11.76
2023-01-13T11:49:27.092Z,11.71
2023-01-13T11:50:27.068Z,11.66
2023-01-13T11:51:27.566Z,11.64
2023-01-13T11:52:27.526Z,11.62
2023-01-13T11:53:27.018Z,11.58
2023-01-13T11:54:26.980Z,11.54
2023-01-13T11:55:27.009Z,11.51
2023-01-13T11:56:27.047Z,11.50
2023-01-13T11:57:26.741Z,11.53
2023-01-13T11:58:26.952Z,11.60
2023-01-13T11:59:26.971Z,11.64
2023-01-13T12:00:27.453Z,11.69
2023-01-13T12:01:26.983Z,11.72
2023-01-13T12:02:26.888Z,11.77
2023-01-13T12:03:27.471Z,11.83
2023-01-13T12:04:27.366Z,11.89
2023-01-13T12:05:27.359Z,11.94
2023-01-13T12:06:26.903Z,11.99
2023-01-13T12:07:26.872Z,12.01
2023-01-13T12:08:27.400Z,12.05
2023-01-13T12:09:26.986Z,12.08
2023-01-13T12:10:26.843Z,12.11
2023-01-13T12:11:26.825Z,12.14
2023-01-13T12:12:27.315Z,12.17
2023-01-13T12:13:26.947Z,12.18
2023-01-13T12:14:26.147Z,12.17
2023-01-13T12:15:27.335Z,12.14
2023-01-13T12:16:27.083Z,12.15
2023-01-13T12:17:27.233Z,12.13
2023-01-13T12:18:26.836Z,12.14
2023-01-13T12:19:27.343Z,12.17
2023-01-13T12:20:26.852Z,12.20
2023-01-13T12:21:26.805Z,12.22
2023-01-13T12:22:25.954Z,12.24
2023-01-13T12:23:27.239Z,12.27
2023-01-13T12:24:26.673Z,12.27
2023-01-13T12:25:27.219Z,12.29
2023-01-13T12:26:27.115Z,12.34
2023-01-13T12:27:27.161Z,12.42
2023-01-13T12:28:28.096Z,12.46
2023-01-13T12:29:26.509Z,12.52
2023-01-13T12:30:27.112Z,12.57
2023-01-13T12:31:28.062Z,12.59
2023-01-13T12:32:26.599Z,12.58
2023-01-13T12:33:27.084Z,12.56
2023-01-13T12:34:26.599Z,12.52
2023-01-13T12:35:26.587Z,12.47
2023-01-13T12:36:26.683Z,12.44
2023-01-13T12:37:26.550Z,12.41
2023-01-13T12:38:27.144Z,12.37
2023-01-13T12:39:26.599Z,12.33
2023-01-13T12:40:27.007Z,12.25
2023-01-13T12:41:28.011Z,12.16
2023-01-13T12:42:25.982Z,12.10
2023-01-13T12:43:26.987Z,12.04
2023-01-13T12:44:26.982Z,12.00
2023-01-13T12:45:26.996Z,11.95
2023-01-13T12:46:26.964Z,11.91
2023-01-13T12:47:25.504Z,11.88
2023-01-13T12:48:26.653Z,11.85
2023-01-13T12:49:26.003Z,11.82
2023-01-13T12:50:27.712Z,11.79
2023-01-13T12:51:26.585Z,11.78
2023-01-13T12:52:27.465Z,11.80
2023-01-13T12:53:25.723Z,11.84
2023-01-13T12:54:26.354Z,11.90
2023-01-13T12:55:26.341Z,11.95
2023-01-13T12:56:26.814Z,12.01
2023-01-13T12:57:26.971Z,12.07
2023-01-13T12:58:26.794Z,12.13
2023-01-13T12:59:26.807Z,12.19